Terminal Aerodrome Forecast
Issued by NWS Pueblo, CO

Home | Current Version | Previous Version | Text Only | Print | Product List | Glossary On
Versions: 1 2 3 4 5 6 7 8 9 10 11 12 13 14
000
FTUS45 KPUB 030542
TAFPUB
TAF
KPUB 030542Z 0306/0406 VRB05KT P6SM OVC050
     FM030900 VRB06KT P6SM SCT100 SCT200
     FM031600 VRB06KT P6SM FEW200=

USA.gov is the U.S. government's official web portal to all federal, state and local government web resources and services.